createdAt,value
2019-02-04T00:02:24.330Z,91.37
2019-02-04T00:04:53.137Z,90.73
2019-02-04T00:07:21.947Z,91.04
2019-02-04T00:09:50.736Z,91.36
2019-02-04T00:12:19.539Z,91.70
2019-02-04T00:14:48.317Z,90.99
2019-02-04T00:17:17.114Z,91.58
2019-02-04T00:19:45.935Z,91.29
2019-02-04T00:22:14.745Z,91.34
2019-02-04T00:24:44.163Z,91.52
2019-02-04T00:27:13.011Z,91.67
2019-02-04T00:29:41.806Z,90.87
2019-02-04T00:32:10.608Z,91.23
2019-02-04T00:34:39.471Z,91.09
2019-02-04T00:37:08.267Z,91.04
2019-02-04T00:39:37.072Z,91.81
2019-02-04T00:42:05.932Z,91.08
2019-02-04T00:44:34.702Z,90.79
2019-02-04T00:47:03.497Z,91.23
2019-02-04T00:49:32.298Z,90.48
2019-02-04T00:52:01.172Z,91.58
2019-02-04T00:54:29.970Z,90.68
2019-02-04T00:56:58.788Z,91.83
2019-02-04T00:59:27.604Z,91.60
2019-02-04T01:01:56.372Z,91.27
2019-02-04T01:04:25.215Z,90.77
2019-02-04T01:06:54.030Z,90.58
2019-02-04T01:09:22.816Z,91.39
2019-02-04T01:11:51.616Z,91.17
2019-02-04T01:14:20.401Z,90.72
2019-02-04T01:16:49.187Z,91.58
2019-02-04T01:19:17.980Z,91.28
2019-02-04T01:21:47.486Z,92.07
2019-02-04T01:24:16.285Z,91.34
2019-02-04T01:26:45.097Z,91.90
2019-02-04T01:29:13.916Z,90.61
2019-02-04T01:31:42.738Z,91.68
2019-02-04T01:34:11.566Z,91.45
2019-02-04T01:36:40.364Z,91.49
2019-02-04T01:39:09.736Z,90.76
2019-02-04T01:41:38.540Z,91.49
2019-02-04T01:44:07.359Z,90.85
2019-02-04T01:46:36.155Z,90.66
2019-02-04T01:49:04.978Z,91.06
2019-02-04T01:51:33.786Z,91.71
2019-02-04T01:54:02.575Z,91.26
2019-02-04T01:56:31.383Z,90.66
2019-02-04T01:59:00.182Z,91.30
2019-02-04T02:01:28.975Z,90.91
2019-02-04T02:03:57.787Z,90.58
2019-02-04T02:06:26.581Z,91.32
2019-02-04T02:08:55.382Z,91.22
2019-02-04T02:11:24.167Z,91.44
2019-02-04T02:13:52.964Z,90.85
2019-02-04T02:16:21.751Z,91.57
2019-02-04T02:18:50.539Z,90.62
2019-02-04T02:21:19.344Z,90.92
2019-02-04T02:23:48.134Z,91.79
2019-02-04T02:26:16.960Z,90.97
2019-02-04T02:28:45.748Z,90.59
2019-02-04T02:31:14.531Z,90.59
2019-02-04T02:33:43.367Z,91.09
2019-02-04T02:36:12.169Z,91.53
2019-02-04T02:38:40.970Z,91.08
2019-02-04T02:41:09.760Z,90.80
2019-02-04T02:43:38.567Z,91.61
2019-02-04T02:46:07.415Z,90.45
2019-02-04T02:48:36.222Z,91.11
2019-02-04T02:51:05.060Z,91.58
2019-02-04T02:53:33.859Z,90.58
2019-02-04T02:56:02.657Z,91.05
2019-02-04T02:58:31.504Z,90.80
2019-02-04T03:01:00.290Z,91.16
2019-02-04T03:03:29.121Z,91.57
2019-02-04T03:05:57.925Z,91.30
2019-02-04T03:08:26.703Z,91.37
2019-02-04T03:10:55.497Z,91.47
2019-02-04T03:13:24.372Z,91.06
2019-02-04T03:15:53.262Z,90.75
2019-02-04T03:18:22.050Z,91.53
2019-02-04T03:20:50.821Z,91.22
2019-02-04T03:23:19.607Z,90.96
2019-02-04T03:25:48.436Z,91.39
2019-02-04T03:28:17.220Z,91.50
2019-02-04T03:30:46.753Z,90.85
2019-02-04T03:33:15.586Z,90.81
2019-02-04T03:35:44.392Z,91.76
2019-02-04T03:38:13.177Z,90.76
2019-02-04T03:40:41.962Z,90.90
2019-02-04T03:43:10.779Z,91.12
2019-02-04T03:45:39.593Z,91.31
2019-02-04T03:48:09.664Z,90.81
2019-02-04T03:50:37.205Z,90.76
2019-02-04T03:53:06.076Z,91.66
2019-02-04T03:55:34.813Z,90.96
2019-02-04T03:58:03.618Z,90.96
2019-02-04T04:00:34.175Z,90.94
2019-02-04T04:03:03.008Z,91.24
2019-02-04T04:05:33.608Z,91.97
2019-02-04T04:08:02.415Z,91.34
2019-02-04T04:10:31.771Z,92.10
2019-02-04T04:13:00.711Z,91.01
2019-02-04T04:15:29.566Z,92.06
2019-02-04T04:17:58.361Z,91.12
2019-02-04T04:20:27.180Z,91.35
2019-02-04T04:22:55.987Z,91.49
2019-02-04T04:25:24.944Z,91.37
2019-02-04T04:27:53.792Z,91.85
2019-02-04T04:30:24.662Z,91.58
2019-02-04T04:32:53.491Z,91.55
2019-02-04T04:35:22.359Z,91.02
2019-02-04T04:37:51.826Z,90.75
2019-02-04T04:40:20.631Z,91.46
2019-02-04T04:42:49.448Z,91.13
2019-02-04T04:45:21.068Z,92.27
2019-02-04T04:47:49.869Z,91.17
2019-02-04T04:50:18.722Z,91.75
2019-02-04T04:52:47.547Z,91.58
2019-02-04T04:55:18.659Z,92.08
2019-02-04T04:57:47.478Z,91.12
2019-02-04T05:00:18.999Z,92.26
2019-02-04T05:02:47.802Z,92.28
2019-02-04T05:05:16.614Z,92.04
2019-02-04T05:07:45.444Z,92.42
2019-02-04T05:10:16.044Z,91.92
2019-02-04T05:12:44.844Z,91.62
2019-02-04T05:15:16.256Z,92.12
2019-02-04T05:17:45.053Z,91.92
2019-02-04T05:20:14.155Z,92.25
2019-02-04T05:22:42.977Z,92.14
2019-02-04T05:25:11.778Z,92.50
2019-02-04T05:27:40.592Z,92.27
2019-02-04T05:30:11.866Z,92.76
2019-02-04T05:32:40.668Z,92.17
2019-02-04T05:35:09.487Z,91.64
2019-02-04T05:37:38.292Z,92.58
2019-02-04T05:40:08.780Z,91.86
2019-02-04T05:42:37.600Z,91.90
2019-02-04T05:45:07.328Z,92.90
2019-02-04T05:47:36.111Z,92.17
2019-02-04T05:50:05.238Z,92.53
2019-02-04T05:52:34.023Z,92.52
2019-02-04T05:55:02.824Z,92.90
2019-02-04T05:57:31.651Z,91.74
2019-02-04T06:00:00.508Z,92.60
2019-02-04T06:02:29.311Z,92.37
2019-02-04T06:04:58.123Z,91.84
2019-02-04T06:07:26.984Z,92.83
2019-02-04T06:09:55.812Z,92.46
2019-02-04T06:12:24.632Z,92.07
2019-02-04T06:14:53.433Z,93.00
2019-02-04T06:17:22.283Z,92.30
2019-02-04T06:19:51.373Z,92.09
2019-02-04T06:22:20.134Z,92.74
2019-02-04T06:24:48.970Z,92.03
2019-02-04T06:27:17.781Z,93.27
2019-02-04T06:29:46.576Z,92.43
2019-02-04T06:32:15.437Z,92.90
2019-02-04T06:34:44.299Z,92.90
2019-02-04T06:37:13.176Z,91.91
2019-02-04T06:39:41.983Z,91.92
2019-02-04T06:42:11.446Z,92.57
2019-02-04T06:44:40.297Z,92.10
2019-02-04T06:47:09.189Z,92.33
2019-02-04T06:49:38.015Z,92.77
2019-02-04T06:52:06.912Z,91.94
2019-02-04T06:54:35.747Z,92.68
2019-02-04T06:57:04.586Z,91.93
2019-02-04T06:59:33.459Z,92.88
2019-02-04T07:02:02.267Z,92.87
2019-02-04T07:04:31.136Z,91.68
2019-02-04T07:06:59.983Z,92.15
2019-02-04T07:09:28.779Z,91.98
2019-02-04T07:11:58.511Z,92.10
2019-02-04T07:14:27.386Z,92.21
2019-02-04T07:16:56.207Z,91.04
2019-02-04T07:19:25.059Z,91.38
2019-02-04T07:21:53.848Z,91.44
2019-02-04T07:24:22.667Z,90.94
2019-02-04T07:26:51.460Z,90.61
2019-02-04T07:29:20.289Z,91.34
2019-02-04T07:31:49.059Z,90.79
2019-02-04T07:34:17.867Z,91.04
2019-02-04T07:36:46.675Z,90.72
2019-02-04T07:39:15.923Z,91.10
2019-02-04T07:41:44.734Z,90.52
2019-02-04T07:44:13.579Z,91.37
2019-02-04T07:46:42.535Z,90.49
2019-02-04T07:49:11.369Z,90.49
2019-02-04T07:51:40.227Z,90.54
2019-02-04T07:54:09.022Z,90.39
2019-02-04T07:56:38.899Z,90.56
2019-02-04T07:59:08.588Z,90.13
2019-02-04T08:01:38.533Z,90.01
2019-02-04T08:04:08.643Z,90.48
2019-02-04T08:06:38.644Z,89.76
2019-02-04T08:09:08.817Z,89.56
2019-02-04T08:11:37.632Z,90.23
2019-02-04T08:14:06.678Z,89.93
2019-02-04T08:16:38.431Z,89.18
2019-02-04T08:19:07.898Z,89.18
2019-02-04T08:21:38.859Z,89.98
2019-02-04T08:24:07.735Z,88.87
2019-02-04T08:26:37.420Z,89.04
2019-02-04T08:29:06.237Z,89.36
2019-02-04T08:31:35.050Z,89.54
2019-02-04T08:34:03.940Z,88.61
2019-02-04T08:36:43.030Z,88.98
2019-02-04T08:39:02.081Z,88.30
2019-02-04T08:41:30.950Z,88.22
2019-02-04T08:43:59.774Z,88.67
2019-02-04T08:46:28.868Z,87.67
2019-02-04T08:48:58.402Z,88.17
2019-02-04T08:51:27.203Z,87.98
2019-02-04T08:53:55.992Z,88.26
2019-02-04T08:56:24.792Z,87.87
2019-02-04T08:58:53.609Z,87.07
2019-02-04T09:01:22.422Z,87.40
2019-02-04T09:03:51.224Z,87.23
2019-02-04T09:06:20.023Z,87.20
2019-02-04T09:08:48.828Z,87.14
2019-02-04T09:11:17.632Z,87.09
2019-02-04T09:13:46.521Z,86.78
2019-02-04T09:16:15.237Z,86.54
2019-02-04T09:18:45.067Z,86.05
2019-02-04T09:21:12.956Z,86.48
2019-02-04T09:23:41.868Z,85.54
2019-02-04T09:26:10.563Z,85.70
2019-02-04T09:28:39.506Z,85.07
2019-02-04T09:31:08.283Z,85.73
2019-02-04T09:33:37.075Z,85.39
2019-02-04T09:36:05.920Z,85.28
2019-02-04T09:38:34.707Z,85.25
2019-02-04T09:41:03.523Z,84.04
2019-02-04T09:43:32.323Z,84.60
2019-02-04T09:46:01.192Z,84.32
2019-02-04T09:48:29.983Z,83.76
2019-02-04T09:51:00.984Z,83.69
2019-02-04T09:53:29.752Z,82.93
2019-02-04T09:55:58.543Z,83.44
2019-02-04T09:58:27.355Z,83.36
2019-02-04T10:00:56.285Z,82.71
2019-02-04T10:03:25.816Z,82.86
2019-02-04T10:05:54.755Z,81.93
2019-02-04T10:08:23.510Z,81.27
2019-02-04T10:10:52.300Z,81.71
2019-02-04T10:13:21.168Z,82.17
2019-02-04T10:15:49.975Z,81.65
2019-02-04T10:18:18.797Z,81.42
2019-02-04T10:20:47.635Z,81.59
2019-02-04T10:23:16.398Z,81.53
2019-02-04T10:25:45.240Z,80.50
2019-02-04T10:28:14.761Z,81.07
2019-02-04T10:30:43.571Z,79.86
2019-02-04T10:33:12.376Z,79.29
2019-02-04T10:35:41.307Z,79.41
2019-02-04T10:38:09.959Z,79.01
2019-02-04T10:40:38.738Z,78.20
2019-02-04T10:43:07.570Z,78.22
2019-02-04T10:45:36.417Z,77.56
2019-02-04T10:48:05.247Z,78.44
2019-02-04T10:50:45.743Z,77.59
2019-02-04T10:53:05.634Z,77.28
2019-02-04T10:55:35.045Z,78.25
2019-02-04T10:58:03.837Z,77.18
2019-02-04T11:00:33.479Z,77.18
2019-02-04T11:03:02.336Z,77.50
2019-02-04T11:05:32.561Z,76.71
2019-02-04T11:08:01.388Z,77.45
2019-02-04T11:10:33.582Z,76.94
2019-02-04T11:13:02.788Z,76.46
2019-02-04T11:15:31.551Z,76.58
2019-02-04T11:18:00.382Z,76.66
2019-02-04T11:20:29.685Z,76.27
2019-02-04T11:22:58.466Z,76.50
2019-02-04T11:25:27.255Z,74.78
2019-02-04T11:27:56.101Z,75.17
2019-02-04T11:30:27.687Z,75.50
2019-02-04T11:32:56.600Z,75.12
2019-02-04T11:35:25.292Z,74.36
2019-02-04T11:37:54.119Z,75.06
2019-02-04T11:40:26.805Z,74.46
2019-02-04T11:42:55.646Z,74.66
2019-02-04T11:45:24.464Z,74.98
2019-02-04T11:47:53.306Z,74.54
2019-02-04T11:50:22.133Z,74.66
2019-02-04T11:52:50.916Z,74.08
2019-02-04T11:55:19.704Z,74.45
2019-02-04T11:57:48.555Z,74.21
2019-02-04T12:00:21.440Z,73.21
2019-02-04T12:02:50.647Z,73.23
2019-02-04T12:05:19.991Z,73.24
2019-02-04T12:07:48.822Z,73.22
2019-02-04T12:10:21.155Z,72.89
2019-02-04T12:12:50.018Z,72.83
2019-02-04T12:15:19.972Z,73.23
2019-02-04T12:17:48.900Z,73.08
2019-02-04T12:20:17.786Z,73.38
2019-02-04T12:22:46.621Z,73.02
2019-02-04T12:25:17.148Z,72.81
2019-02-04T12:27:45.989Z,73.40
2019-02-04T12:30:19.435Z,73.16
2019-02-04T12:32:48.267Z,73.53
2019-02-04T12:35:17.120Z,72.29
2019-02-04T12:37:45.960Z,72.66
2019-02-04T12:40:14.792Z,72.72
2019-02-04T12:42:43.621Z,72.63
2019-02-04T12:45:16.179Z,72.63
2019-02-04T12:47:45.014Z,72.30
2019-02-04T12:50:13.801Z,72.53
2019-02-04T12:52:42.625Z,72.62
2019-02-04T12:55:13.587Z,72.76
2019-02-04T12:57:42.432Z,72.33
2019-02-04T13:00:14.530Z,71.48
2019-02-04T13:02:43.386Z,71.84
2019-02-04T13:05:15.485Z,72.41
2019-02-04T13:07:44.365Z,71.84
2019-02-04T13:10:14.410Z,71.76
2019-02-04T13:12:43.293Z,71.62
2019-02-04T13:15:14.460Z,72.11
2019-02-04T13:17:43.309Z,72.11
2019-02-04T13:20:13.552Z,72.75
2019-02-04T13:22:42.336Z,72.79
2019-02-04T13:25:12.959Z,73.02
2019-02-04T13:27:41.779Z,72.20
2019-02-04T13:30:12.375Z,72.28
2019-02-04T13:32:41.208Z,72.21
2019-02-04T13:35:10.969Z,72.19
2019-02-04T13:37:39.796Z,72.74
2019-02-04T13:40:11.015Z,72.24
2019-02-04T13:42:39.822Z,72.92
2019-02-04T13:45:10.644Z,72.89
2019-02-04T13:47:39.412Z,73.06
2019-02-04T13:50:08.271Z,73.22
2019-02-04T13:52:37.076Z,73.58
2019-02-04T13:55:07.570Z,74.91
2019-02-04T13:57:36.464Z,75.16
2019-02-04T14:00:06.257Z,75.65
2019-02-04T14:02:35.098Z,75.64
2019-02-04T14:05:03.916Z,75.63
2019-02-04T14:07:32.718Z,76.49
2019-02-04T14:10:01.497Z,76.12
2019-02-04T14:12:30.287Z,76.50
2019-02-04T14:14:59.147Z,76.05
2019-02-04T14:17:27.927Z,76.38
2019-02-04T14:19:56.803Z,76.59
2019-02-04T14:22:25.579Z,76.04
2019-02-04T14:24:54.359Z,75.75
2019-02-04T14:27:23.200Z,76.62
2019-02-04T14:29:52.055Z,75.96
2019-02-04T14:32:21.020Z,75.49
2019-02-04T14:34:51.420Z,74.72
2019-02-04T14:37:18.815Z,75.11
2019-02-04T14:39:47.612Z,75.30
2019-02-04T14:42:18.043Z,74.47
2019-02-04T14:44:54.023Z,74.11
2019-02-04T14:47:28.855Z,74.08
2019-02-04T14:50:09.248Z,73.69
2019-02-04T14:53:52.803Z,74.38
2019-02-04T14:56:31.679Z,73.62
2019-02-04T14:59:21.972Z,73.74
2019-02-04T15:02:03.472Z,73.68
2019-02-04T15:04:44.192Z,74.39
2019-02-04T15:07:58.133Z,74.08
2019-02-04T15:10:43.647Z,73.71
2019-02-04T15:13:25.523Z,74.60
2019-02-04T15:16:29.657Z,74.04
2019-02-04T15:19:07.388Z,73.87
2019-02-04T15:21:48.806Z,73.49
2019-02-04T15:24:38.602Z,73.79
2019-02-04T15:27:15.246Z,73.79
2019-02-04T15:29:50.352Z,74.22
2019-02-04T15:33:35.967Z,73.86
2019-02-04T15:36:16.118Z,73.39
2019-02-04T15:38:54.573Z,73.11
2019-02-04T15:41:36.276Z,73.84
2019-02-04T15:44:16.517Z,74.37
2019-02-04T15:47:10.003Z,74.11
2019-02-04T15:49:52.668Z,74.18
2019-02-04T15:52:21.601Z,74.57
2019-02-04T15:54:51.454Z,74.68
2019-02-04T15:57:20.308Z,75.13
2019-02-04T15:59:49.151Z,74.53
2019-02-04T16:02:18.060Z,75.02
2019-02-04T16:04:46.887Z,74.80
2019-02-04T16:07:15.844Z,75.52
2019-02-04T16:09:44.663Z,75.57
2019-02-04T16:12:13.520Z,75.94
2019-02-04T16:14:42.300Z,75.60
2019-02-04T16:17:11.683Z,75.69
2019-02-04T16:19:40.507Z,75.93
2019-02-04T16:22:09.267Z,76.37
2019-02-04T16:24:38.076Z,76.38
2019-02-04T16:27:06.947Z,76.73
2019-02-04T16:29:35.753Z,77.51
2019-02-04T16:32:04.966Z,77.05
2019-02-04T16:34:33.769Z,77.24
2019-02-04T16:37:02.552Z,77.31
2019-02-04T16:39:31.408Z,77.43
2019-02-04T16:42:00.229Z,77.89
2019-02-04T16:44:29.075Z,77.66
2019-02-04T16:46:59.226Z,77.55
2019-02-04T16:49:28.128Z,77.67
2019-02-04T16:51:56.963Z,77.82
2019-02-04T16:54:25.805Z,78.10
2019-02-04T16:56:54.631Z,78.04
2019-02-04T16:59:23.420Z,77.54
2019-02-04T17:01:52.251Z,77.16
2019-02-04T17:04:21.084Z,77.40
2019-02-04T17:06:49.856Z,77.30
2019-02-04T17:09:18.627Z,77.38
2019-02-04T17:11:49.044Z,77.39
2019-02-04T17:14:17.807Z,76.96
2019-02-04T17:16:46.619Z,77.52
2019-02-04T17:19:16.021Z,76.82
2019-02-04T17:21:44.906Z,77.31
2019-02-04T17:24:13.796Z,77.60
2019-02-04T17:26:42.615Z,77.57
2019-02-04T17:29:11.439Z,77.47
2019-02-04T17:31:40.222Z,77.38
2019-02-04T17:34:09.091Z,77.37
2019-02-04T17:36:37.905Z,77.97
2019-02-04T17:39:07.794Z,77.59
2019-02-04T17:41:36.554Z,77.60
2019-02-04T17:44:06.022Z,77.82
2019-02-04T17:46:34.815Z,77.96
2019-02-04T17:49:03.795Z,78.38
2019-02-04T17:51:32.633Z,78.89
2019-02-04T17:54:01.429Z,78.91
2019-02-04T17:56:30.308Z,78.83
2019-02-04T17:58:59.148Z,78.80
2019-02-04T18:01:27.947Z,79.00
2019-02-04T18:03:56.824Z,80.11
2019-02-04T18:06:27.029Z,79.86
2019-02-04T18:08:55.826Z,79.85
2019-02-04T18:11:24.633Z,80.45
2019-02-04T18:13:53.363Z,80.33
2019-02-04T18:16:22.211Z,80.75
2019-02-04T18:18:51.021Z,80.66
2019-02-04T18:21:19.766Z,81.07
2019-02-04T18:23:48.683Z,80.85
2019-02-04T18:26:17.706Z,81.95
2019-02-04T18:28:47.842Z,81.62
2019-02-04T18:31:15.289Z,82.51
2019-02-04T18:33:44.095Z,82.72
2019-02-04T18:36:12.892Z,82.90
2019-02-04T18:38:41.737Z,82.97
2019-02-04T18:41:10.467Z,83.24
2019-02-04T18:43:39.334Z,83.52
2019-02-04T18:46:08.160Z,83.59
2019-02-04T18:48:36.939Z,84.11
2019-02-04T18:51:05.738Z,83.62
2019-02-04T18:53:34.564Z,84.41
2019-02-04T18:56:03.391Z,84.48
2019-02-04T18:58:33.138Z,84.41
2019-02-04T19:01:00.934Z,84.74
2019-02-04T19:03:29.724Z,84.46
2019-02-04T19:05:58.510Z,84.94
2019-02-04T19:08:27.302Z,85.01
2019-02-04T19:10:56.171Z,84.54
2019-02-04T19:13:35.457Z,84.60
2019-02-04T19:15:53.749Z,85.15
2019-02-04T19:18:22.540Z,85.06
2019-02-04T19:20:51.393Z,84.75
2019-02-04T19:23:20.183Z,85.90
2019-02-04T19:25:49.077Z,85.97
2019-02-04T19:28:17.965Z,85.30
2019-02-04T19:30:50.521Z,85.80
2019-02-04T19:33:19.384Z,85.39
2019-02-04T19:35:48.322Z,84.95
2019-02-04T19:38:17.158Z,85.48
2019-02-04T19:40:45.941Z,85.79
2019-02-04T19:43:14.792Z,85.41
2019-02-04T19:45:43.572Z,85.59
2019-02-04T19:48:12.515Z,86.10
2019-02-04T19:50:41.375Z,85.66
2019-02-04T19:53:10.187Z,85.37
2019-02-04T19:55:39.019Z,85.85
2019-02-04T19:58:07.909Z,85.99
2019-02-04T20:00:36.706Z,86.52
2019-02-04T20:03:05.863Z,86.17
2019-02-04T20:05:34.643Z,86.23
2019-02-04T20:08:03.467Z,86.83
2019-02-04T20:10:33.258Z,86.99
2019-02-04T20:13:02.132Z,86.68
2019-02-04T20:15:30.888Z,86.84
2019-02-04T20:17:59.668Z,87.40
2019-02-04T20:20:28.467Z,86.58
2019-02-04T20:22:57.247Z,86.92
2019-02-04T20:25:27.826Z,86.71
2019-02-04T20:27:56.653Z,87.05
2019-02-04T20:30:29.829Z,87.28
2019-02-04T20:32:58.612Z,86.92
2019-02-04T20:35:27.401Z,87.40
2019-02-04T20:37:56.250Z,87.11
2019-02-04T20:40:25.055Z,87.32
2019-02-04T20:42:53.863Z,87.34
2019-02-04T20:45:22.714Z,87.66
2019-02-04T20:47:52.520Z,87.63
2019-02-04T20:50:25.694Z,87.70
2019-02-04T20:52:54.543Z,87.77
2019-02-04T20:55:23.379Z,87.51
2019-02-04T20:57:52.206Z,87.42
2019-02-04T21:00:23.070Z,87.47
2019-02-04T21:02:51.921Z,87.40
2019-02-04T21:05:20.691Z,88.25
2019-02-04T21:07:49.531Z,87.96
2019-02-04T21:10:20.278Z,88.20
2019-02-04T21:12:49.081Z,88.24
2019-02-04T21:15:18.537Z,88.37
2019-02-04T21:17:47.315Z,87.74
2019-02-04T21:20:18.169Z,88.39
2019-02-04T21:22:46.958Z,88.07
2019-02-04T21:25:15.854Z,88.24
2019-02-04T21:27:44.672Z,88.28
2019-02-04T21:30:17.518Z,88.29
2019-02-04T21:32:46.268Z,88.36
2019-02-04T21:35:15.166Z,87.91
2019-02-04T21:37:43.953Z,88.53
2019-02-04T21:40:12.752Z,87.81
2019-02-04T21:42:41.634Z,88.18
2019-02-04T21:45:12.102Z,88.43
2019-02-04T21:47:40.874Z,88.25
2019-02-04T21:50:12.436Z,87.87
2019-02-04T21:52:41.231Z,88.58
2019-02-04T21:55:11.120Z,88.38
2019-02-04T21:57:39.951Z,88.42
2019-02-04T22:00:12.177Z,88.52
2019-02-04T22:02:41.048Z,88.65
2019-02-04T22:05:11.412Z,88.29
2019-02-04T22:07:40.445Z,88.80
2019-02-04T22:10:12.782Z,88.25
2019-02-04T22:12:41.644Z,88.43
2019-02-04T22:15:10.424Z,88.44
2019-02-04T22:17:39.259Z,88.50
2019-02-04T22:20:08.850Z,88.75
2019-02-04T22:22:37.723Z,88.13
2019-02-04T22:25:06.618Z,88.04
2019-02-04T22:27:35.791Z,88.60
2019-02-04T22:30:06.402Z,88.70
2019-02-04T22:32:35.174Z,88.72
2019-02-04T22:35:03.988Z,88.48
2019-02-04T22:37:32.842Z,88.35
2019-02-04T22:40:01.639Z,88.88
2019-02-04T22:42:30.480Z,88.45
2019-02-04T22:44:59.261Z,88.35
2019-02-04T22:47:28.103Z,88.35
2019-02-04T22:49:56.967Z,88.33
2019-02-04T22:52:26.140Z,88.52
2019-02-04T22:54:54.947Z,88.76
2019-02-04T22:57:23.811Z,88.97
2019-02-04T22:59:52.695Z,88.69
2019-02-04T23:02:21.494Z,89.08
2019-02-04T23:04:50.309Z,88.86
2019-02-04T23:07:19.164Z,88.55
2019-02-04T23:09:47.993Z,88.71
2019-02-04T23:12:16.799Z,89.23
2019-02-04T23:14:45.568Z,88.99
2019-02-04T23:17:14.340Z,88.79
2019-02-04T23:19:43.181Z,89.26
2019-02-04T23:22:12.065Z,89.10
2019-02-04T23:24:40.958Z,88.74
2019-02-04T23:27:09.879Z,88.66
2019-02-04T23:29:38.714Z,89.15
2019-02-04T23:32:07.729Z,89.14
2019-02-04T23:34:36.345Z,88.80
2019-02-04T23:37:05.203Z,89.30
2019-02-04T23:39:34.046Z,89.55
2019-02-04T23:42:02.819Z,89.44
2019-02-04T23:44:31.721Z,89.77
2019-02-04T23:47:00.513Z,89.63
2019-02-04T23:49:29.380Z,89.11
2019-02-04T23:51:58.270Z,89.65
2019-02-04T23:54:27.167Z,89.70
2019-02-04T23:56:56.021Z,89.49
2019-02-04T23:59:24.850Z,89.06
